createdAt,value
2023-03-01T05:00:41.451Z,-0.33
2023-03-01T05:01:41.411Z,-0.33
2023-03-01T05:02:41.397Z,-0.33
2023-03-01T05:03:43.467Z,-0.33
2023-03-01T05:04:41.339Z,-0.34
2023-03-01T05:05:41.381Z,-0.34
2023-03-01T05:06:41.311Z,-0.34
2023-03-01T05:07:41.320Z,-0.36
2023-03-01T05:08:41.310Z,-0.34
2023-03-01T05:09:41.310Z,-0.31
2023-03-01T05:10:41.249Z,-0.31
2023-03-01T05:11:41.260Z,-0.31
2023-03-01T05:12:41.245Z,-0.31
2023-03-01T05:13:41.608Z,-0.29
2023-03-01T05:14:41.211Z,-0.28
2023-03-01T05:15:48.373Z,-0.26
2023-03-01T05:16:41.198Z,-0.25
2023-03-01T05:17:41.212Z,-0.23
2023-03-01T05:18:41.161Z,-0.23
2023-03-01T05:19:41.186Z,-0.21
2023-03-01T05:20:41.144Z,-0.22
2023-03-01T05:21:41.234Z,-0.21
2023-03-01T05:22:41.135Z,-0.18
2023-03-01T05:23:41.148Z,-0.18
2023-03-01T05:24:41.110Z,-0.16
2023-03-01T05:25:41.304Z,-0.15
2023-03-01T05:26:41.355Z,-0.15
2023-03-01T05:27:41.134Z,-0.11
2023-03-01T05:28:41.050Z,-0.10
2023-03-01T05:29:41.107Z,-0.10
2023-03-01T05:30:41.068Z,-0.10
2023-03-01T05:31:41.030Z,-0.10
2023-03-01T05:32:41.006Z,-0.08
2023-03-01T05:33:41.019Z,-0.08
2023-03-01T05:34:41.006Z,-0.08
2023-03-01T05:35:41.002Z,-0.07
2023-03-01T05:36:40.983Z,-0.07
2023-03-01T05:37:40.958Z,-0.07
2023-03-01T05:38:40.921Z,-0.05
2023-03-01T05:39:41.011Z,-0.05
2023-03-01T05:40:40.915Z,-0.04
2023-03-01T05:41:40.919Z,-0.04
2023-03-01T05:42:41.189Z,-0.03
2023-03-01T05:43:40.877Z,-0.03
2023-03-01T05:44:40.874Z,-0.03
2023-03-01T05:45:40.885Z,-0.03
2023-03-01T05:46:40.825Z,-0.04
2023-03-01T05:47:40.839Z,-0.04
2023-03-01T05:48:40.846Z,-0.03
2023-03-01T05:49:40.813Z,-0.03
2023-03-01T05:50:40.836Z,-0.04
2023-03-01T05:51:40.785Z,-0.01
2023-03-01T05:52:40.753Z,-0.01
2023-03-01T05:53:40.758Z,0.02
2023-03-01T05:54:40.732Z,0.02
2023-03-01T05:55:40.734Z,0.03
2023-03-01T05:56:40.753Z,0.04
2023-03-01T05:57:40.706Z,0.03
2023-03-01T05:58:40.692Z,0.03
2023-03-01T05:59:40.726Z,0.04
2023-03-01T06:00:40.661Z,0.04
2023-03-01T06:01:40.654Z,0.04
2023-03-01T06:02:40.708Z,0.03
2023-03-01T06:03:40.634Z,0.02
2023-03-01T06:04:40.714Z,0.02
2023-03-01T06:05:40.724Z,0.02
2023-03-01T06:06:40.578Z,0.03
2023-03-01T06:07:40.592Z,0.02
2023-03-01T06:08:40.592Z,-0.01
2023-03-01T06:09:40.609Z,-0.04
2023-03-01T06:10:40.545Z,-0.05
2023-03-01T06:11:40.532Z,-0.10
2023-03-01T06:12:40.500Z,-0.11
2023-03-01T06:13:40.538Z,-0.16
2023-03-01T06:14:40.477Z,-0.19
2023-03-01T06:15:40.589Z,-0.23
2023-03-01T06:16:40.459Z,-0.26
2023-03-01T06:17:40.485Z,-0.29
2023-03-01T06:18:40.464Z,-0.34
2023-03-01T06:19:40.440Z,-0.39
2023-03-01T06:20:40.537Z,-0.40
2023-03-01T06:21:40.421Z,-0.44
2023-03-01T06:22:40.378Z,-0.47
2023-03-01T06:23:40.392Z,-0.47
2023-03-01T06:24:40.362Z,-0.52
2023-03-01T06:25:40.361Z,-0.55
2023-03-01T06:26:40.408Z,-0.58
2023-03-01T06:27:40.346Z,-0.62
2023-03-01T06:28:40.371Z,-0.65
2023-03-01T06:29:41.784Z,-0.65
2023-03-01T06:30:40.286Z,-0.65
2023-03-01T06:31:40.296Z,-0.61
2023-03-01T06:32:40.308Z,-0.52
2023-03-01T06:33:40.272Z,-0.44
2023-03-01T06:34:40.255Z,-0.36
2023-03-01T06:35:40.297Z,-0.33
2023-03-01T06:36:40.225Z,-0.25
2023-03-01T06:37:40.230Z,-0.16
2023-03-01T06:38:40.262Z,-0.08
2023-03-01T06:39:40.204Z,0.00
2023-03-01T06:40:40.180Z,0.14
2023-03-01T06:41:40.166Z,0.23
2023-03-01T06:42:40.153Z,0.33
2023-03-01T06:43:40.167Z,0.42
2023-03-01T06:44:40.184Z,0.49
2023-03-01T06:45:40.145Z,0.57
2023-03-01T06:46:40.136Z,0.68
2023-03-01T06:47:40.144Z,0.75
2023-03-01T06:48:40.077Z,0.83
2023-03-01T06:49:40.080Z,0.87
2023-03-01T06:50:40.110Z,0.90
2023-03-01T06:51:40.067Z,0.90
2023-03-01T06:52:40.052Z,0.98
2023-03-01T06:53:40.019Z,1.08
2023-03-01T06:54:39.985Z,1.16
2023-03-01T06:55:40.058Z,1.29
2023-03-01T06:56:39.957Z,1.34
2023-03-01T06:57:39.954Z,1.44
2023-03-01T06:58:39.941Z,1.48
2023-03-01T06:59:39.935Z,1.54
2023-03-01T07:00:39.923Z,1.65
2023-03-01T07:01:40.143Z,1.72
2023-03-01T07:02:39.916Z,1.77
2023-03-01T07:03:39.880Z,1.90
2023-03-01T07:04:39.857Z,2.00
2023-03-01T07:05:39.874Z,2.06
2023-03-01T07:06:39.817Z,2.12
2023-03-01T07:07:39.906Z,2.23
2023-03-01T07:08:39.817Z,2.35
2023-03-01T07:09:39.798Z,2.49
2023-03-01T07:10:39.798Z,2.64
2023-03-01T07:11:39.805Z,2.78
2023-03-01T07:12:39.756Z,2.84
2023-03-01T07:13:39.934Z,2.90
2023-03-01T07:14:39.742Z,2.87
2023-03-01T07:15:39.736Z,2.87
2023-03-01T07:16:39.693Z,2.85
2023-03-01T07:17:39.706Z,2.79
2023-03-01T07:18:39.680Z,2.74
2023-03-01T07:19:39.725Z,2.84
2023-03-01T07:20:39.633Z,2.82
2023-03-01T07:21:39.691Z,3.02
2023-03-01T07:22:39.623Z,3.03
2023-03-01T07:23:39.633Z,3.21
2023-03-01T07:24:39.612Z,3.39
2023-03-01T07:25:39.632Z,3.47
2023-03-01T07:26:39.565Z,3.60
2023-03-01T07:27:39.580Z,3.76
2023-03-01T07:28:39.549Z,3.88
2023-03-01T07:29:39.552Z,3.94
2023-03-01T07:30:39.562Z,4.05
2023-03-01T07:31:39.530Z,4.16
2023-03-01T07:32:39.597Z,4.23
2023-03-01T07:33:39.496Z,4.12
2023-03-01T07:34:39.472Z,4.23
2023-03-01T07:35:39.592Z,4.16
2023-03-01T07:36:39.458Z,4.05
2023-03-01T07:37:39.432Z,4.12
2023-03-01T07:38:39.429Z,4.11
2023-03-01T07:39:39.408Z,3.98
2023-03-01T07:40:39.456Z,3.91
2023-03-01T07:41:39.390Z,3.93
2023-03-01T07:42:39.397Z,4.06
2023-03-01T07:43:39.363Z,4.30
2023-03-01T07:44:39.365Z,4.40
2023-03-01T07:45:39.389Z,4.50
2023-03-01T07:46:39.366Z,4.47
2023-03-01T07:47:39.339Z,4.52
2023-03-01T07:48:39.333Z,4.18
2023-03-01T07:49:39.279Z,4.04
2023-03-01T07:50:39.282Z,3.96
2023-03-01T07:51:39.304Z,4.08
2023-03-01T07:52:39.263Z,4.14
2023-03-01T07:53:39.256Z,4.27
2023-03-01T07:54:39.242Z,4.42
2023-03-01T07:55:39.199Z,4.52
2023-03-01T07:56:39.360Z,4.59
2023-03-01T07:57:39.191Z,4.69
2023-03-01T07:58:39.212Z,4.77
2023-03-01T07:59:39.156Z,4.75
2023-03-01T08:00:39.159Z,4.80
2023-03-01T08:01:39.173Z,4.88
2023-03-01T08:02:39.210Z,4.80
2023-03-01T08:03:39.092Z,4.67
2023-03-01T08:04:39.117Z,4.52
2023-03-01T08:05:39.154Z,4.60
2023-03-01T08:06:39.098Z,4.80
2023-03-01T08:07:39.046Z,4.84
2023-03-01T08:08:39.048Z,4.72
2023-03-01T08:09:39.021Z,4.27
2023-03-01T08:10:39.028Z,4.15
2023-03-01T08:11:39.130Z,4.29
2023-03-01T08:12:38.995Z,4.34
2023-03-01T08:13:39.005Z,4.36
2023-03-01T08:14:38.967Z,4.50
2023-03-01T08:15:38.946Z,4.54
2023-03-01T08:16:39.043Z,4.22
2023-03-01T08:17:39.125Z,3.94
2023-03-01T08:18:38.928Z,3.68
2023-03-01T08:19:38.892Z,3.51
2023-03-01T08:20:38.899Z,3.45
2023-03-01T08:21:38.865Z,3.40
2023-03-01T08:22:38.870Z,3.33
2023-03-01T08:23:38.912Z,3.18
2023-03-01T08:24:38.872Z,3.14
2023-03-01T08:25:38.827Z,2.99
2023-03-01T08:26:38.889Z,2.99
2023-03-01T08:27:38.793Z,3.00
2023-03-01T08:28:38.816Z,3.06
2023-03-01T08:29:38.772Z,3.15
2023-03-01T08:30:38.830Z,3.18
2023-03-01T08:31:38.833Z,3.21
2023-03-01T08:32:38.789Z,3.31
2023-03-01T08:33:38.714Z,3.28
2023-03-01T08:34:39.135Z,3.32
2023-03-01T08:35:38.711Z,3.24
2023-03-01T08:36:38.812Z,3.14
2023-03-01T08:37:38.677Z,3.08
2023-03-01T08:38:38.682Z,2.99
2023-03-01T08:39:38.670Z,3.05
2023-03-01T08:40:38.649Z,3.13
2023-03-01T08:41:38.645Z,3.06
2023-03-01T08:42:38.741Z,3.03
2023-03-01T08:43:38.591Z,3.05
2023-03-01T08:44:38.592Z,3.15
2023-03-01T08:45:38.595Z,3.21
2023-03-01T08:46:38.654Z,3.13
2023-03-01T08:47:38.739Z,3.10
2023-03-01T08:48:38.803Z,3.05
2023-03-01T08:49:38.546Z,2.92
2023-03-01T08:50:38.632Z,2.96
2023-03-01T08:51:38.523Z,3.02
2023-03-01T08:52:38.520Z,3.03
2023-03-01T08:53:38.485Z,3.08
2023-03-01T08:54:38.570Z,3.06
2023-03-01T08:55:38.452Z,3.08
2023-03-01T08:56:38.451Z,3.15
2023-03-01T08:57:38.522Z,3.17
2023-03-01T08:58:38.424Z,3.26
2023-03-01T08:59:38.482Z,3.33
2023-03-01T09:00:38.458Z,3.39
2023-03-01T09:01:38.373Z,3.32
2023-03-01T09:02:38.427Z,3.31
2023-03-01T09:03:38.364Z,3.42
2023-03-01T09:04:38.330Z,3.40
2023-03-01T09:05:38.320Z,3.48
2023-03-01T09:06:38.397Z,3.57
2023-03-01T09:07:38.283Z,3.66
2023-03-01T09:08:38.300Z,3.65
2023-03-01T09:09:38.272Z,3.75
2023-03-01T09:10:38.269Z,3.84
2023-03-01T09:11:38.299Z,3.90
2023-03-01T09:12:38.309Z,3.87
2023-03-01T09:13:38.220Z,3.87
2023-03-01T09:14:38.246Z,3.76
2023-03-01T09:15:38.190Z,3.73
2023-03-01T09:16:38.259Z,3.69
2023-03-01T09:17:38.239Z,3.68
2023-03-01T09:18:38.184Z,3.73
2023-03-01T09:19:38.147Z,3.75
2023-03-01T09:20:38.145Z,3.72
2023-03-01T09:21:40.739Z,3.66
2023-03-01T09:22:38.134Z,3.68
2023-03-01T09:23:38.177Z,3.66
2023-03-01T09:24:38.187Z,3.69
2023-03-01T09:25:38.192Z,3.76
2023-03-01T09:26:38.206Z,3.91
2023-03-01T09:27:38.154Z,4.08
2023-03-01T09:28:38.185Z,4.15
2023-03-01T09:29:38.269Z,4.27
2023-03-01T09:30:38.195Z,4.33
2023-03-01T09:31:38.135Z,4.27
2023-03-01T09:32:38.162Z,4.11
2023-03-01T09:33:38.115Z,4.12
2023-03-01T09:34:38.115Z,4.12
2023-03-01T09:35:38.181Z,4.05
2023-03-01T09:36:38.096Z,4.11
2023-03-01T09:37:38.054Z,4.11
2023-03-01T09:38:38.064Z,4.11
2023-03-01T09:39:38.135Z,4.05
2023-03-01T09:40:38.044Z,4.08
2023-03-01T09:41:38.101Z,4.16
2023-03-01T09:42:38.004Z,4.20
2023-03-01T09:43:37.982Z,4.14
2023-03-01T09:44:37.960Z,4.22
2023-03-01T09:45:37.955Z,4.23
2023-03-01T09:46:38.060Z,4.29
2023-03-01T09:47:38.061Z,4.36
2023-03-01T09:48:37.936Z,4.32
2023-03-01T09:49:37.904Z,4.42
2023-03-01T09:50:37.908Z,4.41
2023-03-01T09:51:37.874Z,4.44
2023-03-01T09:52:37.883Z,4.45
2023-03-01T09:53:37.917Z,4.37
2023-03-01T09:54:37.830Z,4.32
2023-03-01T09:55:37.806Z,4.30
2023-03-01T09:56:37.748Z,4.36
2023-03-01T09:57:37.658Z,4.45
2023-03-01T09:58:37.708Z,4.54
2023-03-01T09:59:37.638Z,4.62
2023-03-01T10:00:37.658Z,4.63
2023-03-01T10:01:37.609Z,4.67
2023-03-01T10:02:37.639Z,4.72
2023-03-01T10:03:37.685Z,4.84
2023-03-01T10:04:37.860Z,4.85
2023-03-01T10:05:37.622Z,4.86
2023-03-01T10:06:37.567Z,4.85
2023-03-01T10:07:37.535Z,4.97
2023-03-01T10:08:37.577Z,5.06
2023-03-01T10:09:37.508Z,5.10
2023-03-01T10:10:37.506Z,5.20
2023-03-01T10:11:38.245Z,5.18
2023-03-01T10:12:37.493Z,5.25
2023-03-01T10:13:37.455Z,5.27
2023-03-01T10:14:37.482Z,5.38
2023-03-01T10:15:37.503Z,5.31
2023-03-01T10:16:37.434Z,5.27
2023-03-01T10:17:37.488Z,5.22
2023-03-01T10:18:37.417Z,5.22
2023-03-01T10:19:37.399Z,5.31
2023-03-01T10:20:37.403Z,5.38
2023-03-01T10:21:37.356Z,5.35
2023-03-01T10:22:37.366Z,5.36
2023-03-01T10:23:37.374Z,5.43
2023-03-01T10:24:37.330Z,5.45
2023-03-01T10:25:37.312Z,5.46
2023-03-01T10:26:37.312Z,5.54
2023-03-01T10:27:37.298Z,5.49
2023-03-01T10:28:37.301Z,5.45
2023-03-01T10:29:37.292Z,5.38
2023-03-01T10:30:37.265Z,5.36
2023-03-01T10:31:37.239Z,5.46
2023-03-01T10:32:37.269Z,5.56
2023-03-01T10:33:37.266Z,5.67
2023-03-01T10:34:37.206Z,5.82
2023-03-01T10:35:37.249Z,5.94
2023-03-01T10:36:37.191Z,5.93
2023-03-01T10:37:37.149Z,5.83
2023-03-01T10:38:37.244Z,5.74
2023-03-01T10:39:37.143Z,5.79
2023-03-01T10:40:37.130Z,5.82
2023-03-01T10:41:37.087Z,5.81
2023-03-01T10:42:37.101Z,5.81
2023-03-01T10:43:37.106Z,5.85
2023-03-01T10:44:37.120Z,5.93
2023-03-01T10:45:37.049Z,5.99
2023-03-01T10:46:37.148Z,5.99
2023-03-01T10:47:37.093Z,6.01
2023-03-01T10:48:37.365Z,5.97
2023-03-01T10:49:37.138Z,6.04
2023-03-01T10:50:37.180Z,5.99
2023-03-01T10:51:37.098Z,5.94
2023-03-01T10:52:37.101Z,5.86
2023-03-01T10:53:37.083Z,5.91
2023-03-01T10:54:37.218Z,6.01
2023-03-01T10:55:37.047Z,6.06
2023-03-01T10:56:37.052Z,6.04
2023-03-01T10:57:37.058Z,5.99
2023-03-01T10:58:37.057Z,6.06
2023-03-01T10:59:37.009Z,6.15
2023-03-01T11:00:37.125Z,6.18
2023-03-01T11:01:37.087Z,6.25
2023-03-01T11:02:37.090Z,6.31
2023-03-01T11:03:36.951Z,6.31
2023-03-01T11:04:36.995Z,6.22
2023-03-01T11:05:36.919Z,6.22
2023-03-01T11:06:37.046Z,6.22
2023-03-01T11:07:36.925Z,6.18
2023-03-01T11:08:36.934Z,6.17
2023-03-01T11:09:36.889Z,6.12
2023-03-01T11:10:36.891Z,6.18
2023-03-01T11:11:36.843Z,6.17
2023-03-01T11:12:37.002Z,6.22
2023-03-01T11:13:38.302Z,6.21
2023-03-01T11:14:36.950Z,6.19
2023-03-01T11:15:45.123Z,6.12
2023-03-01T11:16:36.842Z,6.27
2023-03-01T11:17:47.938Z,6.34
2023-03-01T11:18:47.725Z,6.37
2023-03-01T11:19:37.885Z,6.46
2023-03-01T11:20:36.758Z,6.41
2023-03-01T11:21:36.712Z,6.40
2023-03-01T11:22:36.779Z,6.43
2023-03-01T11:23:36.630Z,6.43
2023-03-01T11:24:36.708Z,6.46
2023-03-01T11:25:36.775Z,6.55
2023-03-01T11:26:36.662Z,6.61
2023-03-01T11:27:39.338Z,6.59
2023-03-01T11:28:36.517Z,6.67
2023-03-01T11:29:47.864Z,6.74
2023-03-01T11:30:37.545Z,6.74
2023-03-01T11:31:36.621Z,6.71
2023-03-01T11:32:36.519Z,6.80
2023-03-01T11:33:36.473Z,6.87
2023-03-01T11:34:36.443Z,6.98
2023-03-01T11:35:36.452Z,7.10
2023-03-01T11:36:43.551Z,7.06
2023-03-01T11:37:36.382Z,7.06
2023-03-01T11:38:36.410Z,7.02
2023-03-01T11:39:36.358Z,6.99
2023-03-01T11:40:36.403Z,6.97
2023-03-01T11:41:36.339Z,6.95
2023-03-01T11:42:36.470Z,6.94
2023-03-01T11:43:36.316Z,7.02
2023-03-01T11:44:36.320Z,7.16
2023-03-01T11:45:36.305Z,7.24
2023-03-01T11:46:36.391Z,7.27
2023-03-01T11:47:36.413Z,7.31
2023-03-01T11:48:48.826Z,7.25
2023-03-01T11:49:37.273Z,7.10
2023-03-01T11:50:36.217Z,7.10
2023-03-01T11:51:36.235Z,7.09
2023-03-01T11:52:36.202Z,7.10
2023-03-01T11:53:36.204Z,7.15
2023-03-01T11:54:36.243Z,7.16
2023-03-01T11:55:36.238Z,7.25
2023-03-01T11:56:36.157Z,7.31
2023-03-01T11:57:43.541Z,7.43
2023-03-01T11:58:37.155Z,7.49
2023-03-01T11:59:36.170Z,7.58
2023-03-01T12:00:36.133Z,7.57
2023-03-01T12:01:36.697Z,7.67
2023-03-01T12:02:36.114Z,7.58
2023-03-01T12:03:36.165Z,7.53
2023-03-01T12:04:36.094Z,7.57
2023-03-01T12:05:36.085Z,7.57
2023-03-01T12:06:36.174Z,7.60
2023-03-01T12:07:36.025Z,7.53
2023-03-01T12:08:36.003Z,7.58
2023-03-01T12:09:36.004Z,7.67
2023-03-01T12:10:36.217Z,7.57
2023-03-01T12:11:35.993Z,7.43
2023-03-01T12:12:35.976Z,7.32
2023-03-01T12:13:37.894Z,7.35
2023-03-01T12:14:35.936Z,7.42
2023-03-01T12:15:35.935Z,7.49
2023-03-01T12:16:39.444Z,7.53
2023-03-01T12:17:35.920Z,7.67
2023-03-01T12:18:35.869Z,7.82
2023-03-01T12:19:35.869Z,7.89
2023-03-01T12:20:35.834Z,7.92
2023-03-01T12:21:35.843Z,7.90
2023-03-01T12:22:35.876Z,7.75
2023-03-01T12:23:35.848Z,7.69
2023-03-01T12:24:35.801Z,7.64
2023-03-01T12:25:35.859Z,7.75
2023-03-01T12:26:35.766Z,7.83
2023-03-01T12:27:35.764Z,7.86
2023-03-01T12:28:35.800Z,7.97
2023-03-01T12:29:35.757Z,7.93
2023-03-01T12:30:35.732Z,7.92
2023-03-01T12:31:35.927Z,7.92
2023-03-01T12:32:36.602Z,7.95
2023-03-01T12:33:35.688Z,7.97
2023-03-01T12:34:35.716Z,7.89
2023-03-01T12:35:35.741Z,7.86
2023-03-01T12:36:35.630Z,7.87
2023-03-01T12:37:35.768Z,7.85
2023-03-01T12:38:35.609Z,7.86
2023-03-01T12:39:35.773Z,7.83
2023-03-01T12:40:35.616Z,7.85
2023-03-01T12:41:35.601Z,7.83
2023-03-01T12:42:35.565Z,7.85
2023-03-01T12:43:35.561Z,7.86
2023-03-01T12:44:35.537Z,7.92
2023-03-01T12:45:35.645Z,7.98
2023-03-01T12:46:35.509Z,8.00
2023-03-01T12:47:35.517Z,8.05
2023-03-01T12:48:35.528Z,8.10
2023-03-01T12:49:35.494Z,8.26
2023-03-01T12:50:35.586Z,8.43
2023-03-01T12:51:35.473Z,8.45
2023-03-01T12:52:35.425Z,8.52
2023-03-01T12:53:35.437Z,8.47
2023-03-01T12:54:35.408Z,8.37
2023-03-01T12:55:35.518Z,8.33
2023-03-01T12:56:35.416Z,8.30
2023-03-01T12:57:35.386Z,8.38
2023-03-01T12:58:48.627Z,8.43
2023-03-01T12:59:36.366Z,8.43
2023-03-01T13:00:35.358Z,8.40
2023-03-01T13:01:35.373Z,8.45
2023-03-01T13:02:35.314Z,8.48
2023-03-01T13:03:35.377Z,8.58
2023-03-01T13:04:35.440Z,8.66
2023-03-01T13:05:35.332Z,8.71
2023-03-01T13:06:42.729Z,8.70
2023-03-01T13:07:36.284Z,8.70
2023-03-01T13:08:35.221Z,8.65
2023-03-01T13:09:35.237Z,8.62
2023-03-01T13:10:35.286Z,8.65
2023-03-01T13:11:35.239Z,8.56
2023-03-01T13:12:35.158Z,8.63
2023-03-01T13:13:35.169Z,8.65
2023-03-01T13:14:35.145Z,8.71
2023-03-01T13:15:35.227Z,8.76
2023-03-01T13:16:35.244Z,8.83
2023-03-01T13:17:35.142Z,8.76
2023-03-01T13:18:35.094Z,8.79
2023-03-01T13:19:35.097Z,8.80
2023-03-01T13:20:35.057Z,8.86
2023-03-01T13:21:35.126Z,8.87
2023-03-01T13:22:39.774Z,8.80
2023-03-01T13:23:36.061Z,8.79
2023-03-01T13:24:35.014Z,8.76
2023-03-01T13:25:42.472Z,8.83
2023-03-01T13:26:36.004Z,8.91
2023-03-01T13:27:35.006Z,8.92
2023-03-01T13:28:34.972Z,8.91
2023-03-01T13:29:34.967Z,8.94
2023-03-01T13:30:34.932Z,8.98
2023-03-01T13:31:35.036Z,8.96
2023-03-01T13:32:43.574Z,8.98
2023-03-01T13:33:35.924Z,8.92
2023-03-01T13:34:34.888Z,8.99
2023-03-01T13:35:34.982Z,9.04
2023-03-01T13:36:35.280Z,8.98
2023-03-01T13:37:34.862Z,8.92
2023-03-01T13:38:34.845Z,8.98
2023-03-01T13:39:34.870Z,9.11
2023-03-01T13:40:34.856Z,9.04
2023-03-01T13:41:34.820Z,9.20
2023-03-01T13:42:34.815Z,9.29
2023-03-01T13:43:34.789Z,9.36
2023-03-01T13:44:34.783Z,9.36
2023-03-01T13:45:34.885Z,9.32
2023-03-01T13:46:35.222Z,9.21
2023-03-01T13:47:34.742Z,9.13
2023-03-01T13:48:34.720Z,9.15
2023-03-01T13:49:45.623Z,9.18
2023-03-01T13:50:35.686Z,9.20
2023-03-01T13:51:34.702Z,9.21
2023-03-01T13:52:34.716Z,9.21
2023-03-01T13:53:34.678Z,9.20
2023-03-01T13:54:34.633Z,9.20
2023-03-01T13:55:34.641Z,9.11
2023-03-01T13:56:34.631Z,9.14
2023-03-01T13:57:34.612Z,9.13
2023-03-01T13:58:34.652Z,9.10
2023-03-01T13:59:34.594Z,9.18
2023-03-01T14:00:34.552Z,9.21
2023-03-01T14:01:35.042Z,9.18
2023-03-01T14:02:34.530Z,9.17
2023-03-01T14:03:34.612Z,9.11
2023-03-01T14:04:34.659Z,9.14
2023-03-01T14:05:34.515Z,9.17
2023-03-01T14:06:35.014Z,9.11
2023-03-01T14:07:34.481Z,9.20
2023-03-01T14:08:34.456Z,9.33
2023-03-01T14:09:34.458Z,9.42
2023-03-01T14:10:34.497Z,9.56
2023-03-01T14:11:34.465Z,9.56
2023-03-01T14:12:34.409Z,9.58
2023-03-01T14:13:34.417Z,9.58
2023-03-01T14:14:34.408Z,9.38
2023-03-01T14:15:34.416Z,9.31
2023-03-01T14:16:34.403Z,9.36
2023-03-01T14:17:34.362Z,9.31
2023-03-01T14:18:34.377Z,9.24
2023-03-01T14:19:34.705Z,9.20
2023-03-01T14:20:34.293Z,9.24
2023-03-01T14:21:34.319Z,9.28
2023-03-01T14:22:34.311Z,9.28
2023-03-01T14:23:34.290Z,9.35
2023-03-01T14:24:34.253Z,9.35
2023-03-01T14:25:34.252Z,9.35
2023-03-01T14:26:34.255Z,9.20
2023-03-01T14:27:34.294Z,9.21
2023-03-01T14:28:34.191Z,9.26
2023-03-01T14:29:34.198Z,9.29
2023-03-01T14:30:34.207Z,9.32
2023-03-01T14:31:38.476Z,9.28
2023-03-01T14:32:35.212Z,9.14
2023-03-01T14:33:34.160Z,9.11
2023-03-01T14:34:34.119Z,9.18
2023-03-01T14:35:34.138Z,9.21
2023-03-01T14:36:34.135Z,9.14
2023-03-01T14:37:34.110Z,9.17
2023-03-01T14:38:34.064Z,9.24
2023-03-01T14:39:34.076Z,9.31
2023-03-01T14:40:34.045Z,9.42
2023-03-01T14:41:34.053Z,9.38
2023-03-01T14:42:34.046Z,9.32
2023-03-01T14:43:34.030Z,9.23
2023-03-01T14:44:33.999Z,9.20
2023-03-01T14:45:33.994Z,9.15
2023-03-01T14:46:34.280Z,9.13
2023-03-01T14:47:34.017Z,8.99
2023-03-01T14:48:33.947Z,8.98
2023-03-01T14:49:33.958Z,8.99
2023-03-01T14:50:33.925Z,9.04
2023-03-01T14:51:33.919Z,9.05
2023-03-01T14:52:34.000Z,9.11
2023-03-01T14:53:42.779Z,9.21
2023-03-01T14:54:34.877Z,9.24
2023-03-01T14:55:33.877Z,9.20
2023-03-01T14:56:33.957Z,9.26
2023-03-01T14:57:33.844Z,9.20
2023-03-01T14:58:33.850Z,9.21
2023-03-01T14:59:33.880Z,9.24
2023-03-01T15:00:33.872Z,9.26
2023-03-01T15:01:33.838Z,9.29
2023-03-01T15:02:33.767Z,9.32
2023-03-01T15:03:33.835Z,9.39
2023-03-01T15:04:33.785Z,9.40
2023-03-01T15:05:33.820Z,9.40
2023-03-01T15:06:33.983Z,9.33
2023-03-01T15:07:33.725Z,9.33
2023-03-01T15:08:33.716Z,9.29
2023-03-01T15:09:33.708Z,9.28
2023-03-01T15:10:33.691Z,9.28
2023-03-01T15:11:33.741Z,9.15
2023-03-01T15:12:33.738Z,9.01
2023-03-01T15:13:33.650Z,9.02
2023-03-01T15:14:33.639Z,9.08
2023-03-01T15:15:33.633Z,9.13
2023-03-01T15:16:33.866Z,9.20
2023-03-01T15:17:33.664Z,9.24
2023-03-01T15:18:33.598Z,9.20
2023-03-01T15:19:33.617Z,9.15
2023-03-01T15:20:33.541Z,9.13
2023-03-01T15:21:33.565Z,9.10
2023-03-01T15:22:33.513Z,9.08
2023-03-01T15:23:33.682Z,8.99
2023-03-01T15:24:33.481Z,8.99
2023-03-01T15:25:33.502Z,9.02
2023-03-01T15:26:33.900Z,8.95
2023-03-01T15:27:33.460Z,8.89
2023-03-01T15:28:33.476Z,8.86
2023-03-01T15:29:33.495Z,8.77
2023-03-01T15:30:33.406Z,8.77
2023-03-01T15:31:33.486Z,8.80
2023-03-01T15:32:33.466Z,8.80
2023-03-01T15:33:33.432Z,8.81
2023-03-01T15:34:33.362Z,8.77
2023-03-01T15:35:33.468Z,8.83
2023-03-01T15:36:33.533Z,8.76
2023-03-01T15:37:33.330Z,8.68
2023-03-01T15:38:33.301Z,8.68
2023-03-01T15:39:33.325Z,8.65
2023-03-01T15:40:33.274Z,8.62
2023-03-01T15:41:33.325Z,8.63
2023-03-01T15:42:33.274Z,8.62
2023-03-01T15:43:33.291Z,8.62
2023-03-01T15:44:42.671Z,8.58
2023-03-01T15:45:34.237Z,8.59
2023-03-01T15:46:33.665Z,8.61
2023-03-01T15:47:33.221Z,8.58
2023-03-01T15:48:33.222Z,8.61
2023-03-01T15:49:33.184Z,8.52
2023-03-01T15:50:33.163Z,8.45
2023-03-01T15:51:33.161Z,8.47
2023-03-01T15:52:33.138Z,8.45
2023-03-01T15:53:33.140Z,8.41
2023-03-01T15:54:33.181Z,8.41
2023-03-01T15:55:33.109Z,8.38
2023-03-01T15:56:33.286Z,8.37
2023-03-01T15:57:33.082Z,8.34
2023-03-01T15:58:33.060Z,8.36
2023-03-01T15:59:33.043Z,8.29
2023-03-01T16:00:33.109Z,8.30
2023-03-01T16:01:33.813Z,8.30
2023-03-01T16:02:33.106Z,8.28
2023-03-01T16:03:33.004Z,8.26
2023-03-01T16:04:33.019Z,8.30
2023-03-01T16:05:32.964Z,8.38
2023-03-01T16:06:33.447Z,8.55
2023-03-01T16:07:32.936Z,8.65
2023-03-01T16:08:32.949Z,8.84
2023-03-01T16:09:32.949Z,8.99
2023-03-01T16:10:32.910Z,9.08
2023-03-01T16:11:32.881Z,9.13
2023-03-01T16:12:32.961Z,9.17
2023-03-01T16:13:32.904Z,8.95
2023-03-01T16:14:32.872Z,8.73
2023-03-01T16:15:33.320Z,8.50
2023-03-01T16:16:33.173Z,8.34
2023-03-01T16:17:32.807Z,8.19
2023-03-01T16:18:32.867Z,8.12
2023-03-01T16:19:32.779Z,8.10
2023-03-01T16:20:33.909Z,8.04
2023-03-01T16:21:33.062Z,8.01
2023-03-01T16:22:32.766Z,7.95
2023-03-01T16:23:32.728Z,7.89
2023-03-01T16:24:32.779Z,7.86
2023-03-01T16:25:32.706Z,7.82
2023-03-01T16:26:32.996Z,7.80
2023-03-01T16:27:32.678Z,7.77
2023-03-01T16:28:32.688Z,7.72
2023-03-01T16:29:32.692Z,7.68
2023-03-01T16:30:32.657Z,7.64
2023-03-01T16:31:32.963Z,7.63
2023-03-01T16:32:32.675Z,7.57
2023-03-01T16:33:33.555Z,7.52
2023-03-01T16:34:32.685Z,7.46
2023-03-01T16:35:32.595Z,7.39
2023-03-01T16:36:32.617Z,7.35
2023-03-01T16:37:32.578Z,7.32
2023-03-01T16:38:32.567Z,7.32
2023-03-01T16:39:32.543Z,7.32
2023-03-01T16:40:32.594Z,7.31
2023-03-01T16:41:32.821Z,7.28
2023-03-01T16:42:32.573Z,7.23
2023-03-01T16:43:32.498Z,7.17
2023-03-01T16:44:32.514Z,7.16
2023-03-01T16:45:32.477Z,7.13
2023-03-01T16:46:32.512Z,7.10
2023-03-01T16:47:32.421Z,7.03
2023-03-01T16:48:32.728Z,6.98
2023-03-01T16:49:32.397Z,6.95
2023-03-01T16:50:32.468Z,6.91
2023-03-01T16:51:32.672Z,6.91
2023-03-01T16:52:32.427Z,6.91
2023-03-01T16:53:32.357Z,6.88
2023-03-01T16:54:32.361Z,6.84
2023-03-01T16:55:32.336Z,6.80
2023-03-01T16:56:32.677Z,6.74
2023-03-01T16:57:32.305Z,6.70
2023-03-01T16:58:32.300Z,6.64
2023-03-01T16:59:32.268Z,6.61
2023-03-01T17:00:32.281Z,6.56
2023-03-01T17:01:32.674Z,6.54
2023-03-01T17:02:32.332Z,6.52
2023-03-01T17:03:32.277Z,6.46
2023-03-01T17:04:32.257Z,6.40
2023-03-01T17:05:32.197Z,6.36
2023-03-01T17:06:32.213Z,6.28
2023-03-01T17:07:32.181Z,6.21
2023-03-01T17:08:35.414Z,6.17
2023-03-01T17:09:32.145Z,6.12
2023-03-01T17:10:32.162Z,6.12
2023-03-01T17:11:32.500Z,6.04
2023-03-01T17:12:32.122Z,6.00
2023-03-01T17:13:32.094Z,5.96
2023-03-01T17:14:32.150Z,5.91
2023-03-01T17:15:32.079Z,5.89
2023-03-01T17:16:32.104Z,5.83
2023-03-01T17:17:32.046Z,5.75
2023-03-01T17:18:32.058Z,5.68
2023-03-01T17:19:32.022Z,5.65
2023-03-01T17:20:32.074Z,5.65
2023-03-01T17:21:38.753Z,5.65
2023-03-01T17:22:32.015Z,5.67
2023-03-01T17:23:31.974Z,5.65
2023-03-01T17:24:31.979Z,5.63
2023-03-01T17:25:31.950Z,5.64
2023-03-01T17:26:32.046Z,5.64
2023-03-01T17:27:31.922Z,5.63
2023-03-01T17:28:31.926Z,5.58
2023-03-01T17:29:31.905Z,5.53
2023-03-01T17:30:31.903Z,5.48
2023-03-01T17:31:32.241Z,5.46
2023-03-01T17:32:32.044Z,5.43
2023-03-01T17:33:31.865Z,5.43
2023-03-01T17:34:31.862Z,5.43
2023-03-01T17:35:31.906Z,5.42
2023-03-01T17:36:31.848Z,5.39
2023-03-01T17:37:31.856Z,5.36
2023-03-01T17:38:31.796Z,5.33
2023-03-01T17:39:32.671Z,5.28
2023-03-01T17:40:31.826Z,5.21
2023-03-01T17:41:32.004Z,5.15
2023-03-01T17:42:31.758Z,5.09
2023-03-01T17:43:31.713Z,5.04
2023-03-01T17:44:31.722Z,5.00
2023-03-01T17:45:31.781Z,4.94
2023-03-01T17:46:31.693Z,4.94
2023-03-01T17:47:31.662Z,4.96
2023-03-01T17:48:31.661Z,4.96
2023-03-01T17:49:31.661Z,4.94
2023-03-01T17:50:31.711Z,4.94
2023-03-01T17:51:31.808Z,4.88
2023-03-01T17:52:31.629Z,4.86
2023-03-01T17:53:31.594Z,4.80
2023-03-01T17:54:31.630Z,4.77
2023-03-01T17:55:31.560Z,4.72
2023-03-01T17:56:31.613Z,4.69
2023-03-01T17:57:31.546Z,4.65
2023-03-01T17:58:31.540Z,4.65
2023-03-01T17:59:31.535Z,4.59
2023-03-01T18:00:31.783Z,4.54
2023-03-01T18:01:31.888Z,4.52
2023-03-01T18:02:31.521Z,4.50
2023-03-01T18:03:31.463Z,4.44
2023-03-01T18:04:31.500Z,4.44
2023-03-01T18:05:31.442Z,4.40
2023-03-01T18:06:31.827Z,4.34
2023-03-01T18:07:31.405Z,4.29
2023-03-01T18:08:31.422Z,4.26
2023-03-01T18:09:31.386Z,4.27
2023-03-01T18:10:31.422Z,4.22
2023-03-01T18:11:34.625Z,4.15
2023-03-01T18:12:32.545Z,4.12
2023-03-01T18:13:31.338Z,4.12
2023-03-01T18:14:31.338Z,4.12
2023-03-01T18:15:31.315Z,4.08